Aeroporto :
LOGIN :

Iscrizione | Disclaimer

   EN    FR    IT 

 










Sommario :    VFR   VFR Marginale   IFR   IFR Intensivo   IFR Molto Intensivo
Visibilità : 
Base nubi : 
>= 8 km
>= 3000ft
5 / 8 km
1000 / 3000 ft
1500m / 5 km
500 / 1000 ft
800 / 1500m
200 / 500 ft
< 800m
< 200 ft
Simboli :   Temporali  Nebbia  Neve Forte  Precipitazioni Forti  Vento > 20 kt
SIGMETs :   Varie  Temporali  Ghiacco  Turbolenza  Onda orograficha  Ceneri Vulcaniche






- Altitudine del aeroporto : 76 ft
- Codice IATA : AKT


LCRA - Akrotiri AB

ULTIMO METAR :
  • 300940Z 25010KT 9999 FEW020 SCT120 BKN200 19/14 Q1012 NOSIG

METARs OBSOLETI :
  • 300918Z 24012KT 9999 FEW020 SCT080 BKN200 19/13 Q1012 NOSIG
  • 300850Z 23012KT 9999 FEW016 SCT030 19/14 Q1012 NOSIG
  • 300820Z 25012KT 9999 FEW016 SCT035 18/14 Q1012 NOSIG
  • 300750Z AUTO /////KT //// // SCT016/// BKN033/// 18/14 Q1012

TAF TAF LCRA
Valido dal 30 a 09 ore il 31 a 03 ore UTC


300756Z 3009/3103 27015KT 9999 FEW020 SCT030 BKN070
BECMG 3015/3018 05010KT



MetMap, La meteo Aeronautica in un colpo d'occhio ! - Copyright ORBIFLY Dicembre 2007 - Disclaimer

ORBIFLY MET'MAP TEAM :

Programmazione e sviluppo : Alexandra Zaïnal
Concezione : Baudouin d'Aumeries
Aiuto per la programmazione : Marc-Olivier Méhu
Supporto tecnico e logistico : Manuel Goepfert
Aiuto per la traduzione : Arnaldo La Scala

Contatto : metmap@orbifly.com




FONTI E CREDITI :

   NOAA